Mn Pelican — FMLR — position and weather

sailwx.info

Track history (hours):
 
Tides and Currents Weather Stations Pressure Air Temp Water Temp Dewpoint Dewpoint Depression Visibility Wind Speed Wind Dir Waves Ship Positions

Mn Pelican

Last reported at 2017-Apr-26 03:52 UTC. Time now 2017-Apr-27 15:01 UTC.
Position N 49°51' W 003°37'.

Length 155 m; draft 6.2 m.

Type: Ship. MMSI: 228315700.

Date/timePositionNaut miles runAvg speedWind from/ knotsBaromVisibWave heightAir tempDewpointWater temp
2017-Apr-26 03:52N 49°51' W 003°37'513.7
2017-Apr-26 03:30N 49°54' W 003°31'714.4
2017-Apr-26 03:00N 49°58' W 003°23'714.9
2017-Apr-26 02:31N 50°02' W 003°13'815.8
2017-Apr-26 02:01N 50°06' W 003°02'816.5
2017-Apr-26 01:30N 50°10' W 002°51'816.8
2017-Apr-26 01:01N 50°14' W 002°40'3216.7
2017-Apr-25 23:06N 50°31' W 001°57'216.2
2017-Apr-25 23:01N 50°33' W 001°56'612.9
2017-Apr-25 22:30N 50°39' W 001°55'4 8.5
2017-Apr-25 22:00N 50°42' W 001°59'0 0.0
2017-Apr-25 21:29N 50°42' W 001°59'0 0.0
2017-Apr-25 20:59N 50°42' W 001°59'0 0.0
2017-Apr-25 20:26N 50°42' W 001°59'0 0.0
2017-Apr-25 19:58N 50°42' W 001°59'0 0.0
2017-Apr-25 19:25N 50°42' W 001°59'0 0.0
2017-Apr-25 19:00N 50°42' W 001°59'2 3.5
2017-Apr-25 18:30N 50°41' W 001°57'510.3
2017-Apr-25 18:00N 50°37' W 001°53'38215.2
2017-Apr-24 16:54N 44°22' W 003°38'2319.8
2017-Apr-24 15:45N 44°01' W 003°26'519.5
2017-Apr-24 15:30N 43°56' W 003°23'1019.8
2017-Apr-24 15:00N 43°47' W 003°18'1019.9
2017-Apr-24 14:29N 43°38' W 003°13'1717.4
2017-Apr-24 13:30N 43°22' W 003°04'1 1.9
2017-Apr-24 13:00N 43°21' W 003°04'0 0.0
2017-Apr-24 12:30N 43°21' W 003°04'25210.6
2017-Apr-23 12:38N 47°16' W 005°16'16912.2
2017-Apr-22 22:47N 49°52' W 003°37'415.7
2017-Apr-22 22:30N 49°54' W 003°31'815.7
2017-Apr-22 22:00N 49°59' W 003°22'815.6
2017-Apr-22 21:30N 50°03' W 003°11'815.6
2017-Apr-22 21:00N 50°07' W 003°01'815.3
2017-Apr-22 20:30N 50°10' W 002°50'714.9
2017-Apr-22 20:00N 50°14' W 002°40'3213.6
2017-Apr-22 17:37N 50°31' W 001°56'213.1
2017-Apr-22 17:30N 50°32' W 001°55'612.6
2017-Apr-22 17:00N 50°38' W 001°54'5 9.3
2017-Apr-22 16:30N 50°42' W 001°58'1 2.1
2017-Apr-22 16:00N 50°42' W 001°59'0 0.0
2017-Apr-22 15:22N 50°42' W 001°59'0 0.0
2017-Apr-22 14:58N 50°42' W 001°59'0 0.0
2017-Apr-22 14:28N 50°42' W 001°59'0 0.0
2017-Apr-22 13:30N 50°42' W 001°59'0 0.0
2017-Apr-22 12:57N 50°42' W 001°59'0 0.0
2017-Apr-22 12:30N 50°42' W 001°59'0 0.0
2017-Apr-22 11:57N 50°42' W 001°59'0 0.0
2017-Apr-22 11:27N 50°42' W 001°59'0 0.0
2017-Apr-22 10:59N 50°42' W 001°59'0 0.0
2017-Apr-22 10:20N 50°42' W 001°59'0 0.0
2017-Apr-22 09:56N 50°42' W 001°59'0 0.0
2017-Apr-22 09:29N 50°42' W 001°59'0 0.0
2017-Apr-22 09:01N 50°42' W 001°59'1 2.6
2017-Apr-22 08:31N 50°42' W 001°57'5 9.0
2017-Apr-22 08:01N 50°38' W 001°54'612.7
2017-Apr-22 07:31N 50°32' W 001°52'5411.4
2017-Apr-22 02:45N 49°52' W 002°50'414.6
2017-Apr-22 02:27N 49°50' W 002°55'714.2
2017-Apr-22 02:00N 49°47' W 003°04'1213.9
2017-Apr-22 01:08N 49°40' W 003°20'213.9
2017-Apr-22 01:01N 49°40' W 003°22'8614.0
2017-Apr-21 18:54N 48°57' W 005°16'614.5
2017-Apr-21 18:30N 48°54' W 005°24'714.5
2017-Apr-21 18:00N 48°50' W 005°33'1614.0
2017-Apr-21 16:52N 48°37' W 005°46'514.2
2017-Apr-21 16:30N 48°32' W 005°49'7414.7
2017-Apr-21 11:26N 47°20' W 005°19'  
Track history (hours):
 
Tides and Currents Weather Stations Pressure Air Temp Water Temp Dewpoint Dewpoint Depression Visibility Wind Speed Wind Dir Waves Ship Positions

Mn Pelican

Last reported at 2017-Apr-26 03:52 UTC. Time now 2017-Apr-27 15:01 UTC.
Position N 49°51' W 003°37'.

Length 155 m; draft 6.2 m.

Type: Ship. MMSI: 228315700.

Date/timePositionNaut miles runAvg speedWind from/ knotsBaromVisibWave heightAir tempDewpointWater temp
2017-Apr-26 03:52N 49°51' W 003°37'513.7
2017-Apr-26 03:30N 49°54' W 003°31'714.4
2017-Apr-26 03:00N 49°58' W 003°23'714.9
2017-Apr-26 02:31N 50°02' W 003°13'815.8
2017-Apr-26 02:01N 50°06' W 003°02'816.5
2017-Apr-26 01:30N 50°10' W 002°51'816.8
2017-Apr-26 01:01N 50°14' W 002°40'3216.7
2017-Apr-25 23:06N 50°31' W 001°57'216.2
2017-Apr-25 23:01N 50°33' W 001°56'612.9
2017-Apr-25 22:30N 50°39' W 001°55'4 8.5
2017-Apr-25 22:00N 50°42' W 001°59'0 0.0
2017-Apr-25 21:29N 50°42' W 001°59'0 0.0
2017-Apr-25 20:59N 50°42' W 001°59'0 0.0
2017-Apr-25 20:26N 50°42' W 001°59'0 0.0
2017-Apr-25 19:58N 50°42' W 001°59'0 0.0
2017-Apr-25 19:25N 50°42' W 001°59'0 0.0
2017-Apr-25 19:00N 50°42' W 001°59'2 3.5
2017-Apr-25 18:30N 50°41' W 001°57'510.3
2017-Apr-25 18:00N 50°37' W 001°53'38215.2
2017-Apr-24 16:54N 44°22' W 003°38'2319.8
2017-Apr-24 15:45N 44°01' W 003°26'519.5
2017-Apr-24 15:30N 43°56' W 003°23'1019.8
2017-Apr-24 15:00N 43°47' W 003°18'1019.9
2017-Apr-24 14:29N 43°38' W 003°13'1717.4
2017-Apr-24 13:30N 43°22' W 003°04'1 1.9
2017-Apr-24 13:00N 43°21' W 003°04'0 0.0
2017-Apr-24 12:30N 43°21' W 003°04'25210.6
2017-Apr-23 12:38N 47°16' W 005°16'16912.2
2017-Apr-22 22:47N 49°52' W 003°37'415.7
2017-Apr-22 22:30N 49°54' W 003°31'815.7
2017-Apr-22 22:00N 49°59' W 003°22'815.6
2017-Apr-22 21:30N 50°03' W 003°11'815.6
2017-Apr-22 21:00N 50°07' W 003°01'815.3
2017-Apr-22 20:30N 50°10' W 002°50'714.9
2017-Apr-22 20:00N 50°14' W 002°40'3213.6
2017-Apr-22 17:37N 50°31' W 001°56'213.1
2017-Apr-22 17:30N 50°32' W 001°55'612.6
2017-Apr-22 17:00N 50°38' W 001°54'5 9.3
2017-Apr-22 16:30N 50°42' W 001°58'1 2.1
2017-Apr-22 16:00N 50°42' W 001°59'0 0.0
2017-Apr-22 15:22N 50°42' W 001°59'0 0.0
2017-Apr-22 14:58N 50°42' W 001°59'0 0.0
2017-Apr-22 14:28N 50°42' W 001°59'0 0.0
2017-Apr-22 13:30N 50°42' W 001°59'0 0.0
2017-Apr-22 12:57N 50°42' W 001°59'0 0.0
2017-Apr-22 12:30N 50°42' W 001°59'0 0.0
2017-Apr-22 11:57N 50°42' W 001°59'0 0.0
2017-Apr-22 11:27N 50°42' W 001°59'0 0.0
2017-Apr-22 10:59N 50°42' W 001°59'0 0.0
2017-Apr-22 10:20N 50°42' W 001°59'0 0.0
2017-Apr-22 09:56N 50°42' W 001°59'0 0.0
2017-Apr-22 09:29N 50°42' W 001°59'0 0.0
2017-Apr-22 09:01N 50°42' W 001°59'1 2.6
2017-Apr-22 08:31N 50°42' W 001°57'5 9.0
2017-Apr-22 08:01N 50°38' W 001°54'612.7
2017-Apr-22 07:31N 50°32' W 001°52'5411.4
2017-Apr-22 02:45N 49°52' W 002°50'414.6
2017-Apr-22 02:27N 49°50' W 002°55'714.2
2017-Apr-22 02:00N 49°47' W 003°04'1213.9
2017-Apr-22 01:08N 49°40' W 003°20'213.9
2017-Apr-22 01:01N 49°40' W 003°22'8614.0
2017-Apr-21 18:54N 48°57' W 005°16'614.5
2017-Apr-21 18:30N 48°54' W 005°24'714.5
2017-Apr-21 18:00N 48°50' W 005°33'1614.0
2017-Apr-21 16:52N 48°37' W 005°46'514.2
2017-Apr-21 16:30N 48°32' W 005°49'7414.7
2017-Apr-21 11:26N 47°20' W 005°19'  

Dump ship's entire track history